createdAt,value
2022-12-01T00:00:36.663Z,24.88
2022-12-01T00:05:38.321Z,21.75
2022-12-01T00:10:39.939Z,22.23
2022-12-01T00:15:41.555Z,19.65
2022-12-01T00:20:43.260Z,22.50
2022-12-01T00:25:44.919Z,19.88
2022-12-01T00:30:46.534Z,19.17
2022-12-01T00:35:48.181Z,16.75
2022-12-01T00:40:49.817Z,18.10
2022-12-01T00:45:52.138Z,19.48
2022-12-01T00:50:54.865Z,19.25
2022-12-01T00:55:56.957Z,18.52
2022-12-01T01:01:00.626Z,17.42
2022-12-01T01:06:07.188Z,19.85
2022-12-01T01:11:09.310Z,17.30
2022-12-01T01:16:19.202Z,18.90
2022-12-01T01:21:21.984Z,18.88
2022-12-01T01:26:24.882Z,19.45
2022-12-01T01:31:28.564Z,19.05
2022-12-01T01:36:30.318Z,22.95
2022-12-01T01:41:32.005Z,20.80
2022-12-01T01:46:34.922Z,22.55
2022-12-01T01:51:48.872Z,19.92
2022-12-01T01:56:52.077Z,18.25
2022-12-01T02:02:03.100Z,13.23
2022-12-01T02:07:07.107Z,18.42
2022-12-01T02:12:34.628Z,19.75
2022-12-01T02:17:42.024Z,20.05
2022-12-01T02:23:02.839Z,20.60
2022-12-01T02:28:26.282Z,22.20
2022-12-01T02:33:45.295Z,23.92
2022-12-01T02:39:06.327Z,21.65
2022-12-01T02:44:34.228Z,23.17
2022-12-01T02:49:41.984Z,21.63
2022-12-01T02:54:48.404Z,19.63
2022-12-01T02:59:54.282Z,23.92
2022-12-01T03:05:09.988Z,23.98
2022-12-01T03:10:24.303Z,24.15
2022-12-01T03:15:44.425Z,25.63
2022-12-01T03:21:08.291Z,25.95
2022-12-01T03:26:16.240Z,24.23
2022-12-01T03:31:27.597Z,28.48
2022-12-01T03:36:39.441Z,28.50
2022-12-01T03:41:52.827Z,28.48
2022-12-01T03:47:04.263Z,25.95
2022-12-01T03:52:39.626Z,30.15
2022-12-01T03:58:05.673Z,26.33
2022-12-01T04:03:07.556Z,29.42
2022-12-01T04:08:09.322Z,32.58
2022-12-01T04:13:22.630Z,32.85
2022-12-01T04:18:24.438Z,35.75
2022-12-01T04:24:01.385Z,35.45
2022-12-01T04:29:06.170Z,37.38
2022-12-01T04:34:09.515Z,41.85
2022-12-01T04:39:11.123Z,33.90
2022-12-01T04:44:13.179Z,36.90
2022-12-01T04:49:14.847Z,40.60
2022-12-01T04:54:17.250Z,38.22
2022-12-01T04:59:19.025Z,41.75
2022-12-01T05:04:20.693Z,43.35
2022-12-01T05:09:22.355Z,46.72
2022-12-01T05:14:24.053Z,45.90
2022-12-01T05:19:44.518Z,43.80
2022-12-01T05:24:46.104Z,40.28
2022-12-01T05:29:48.251Z,47.53
2022-12-01T05:34:50.052Z,46.83
2022-12-01T05:39:51.703Z,44.88
2022-12-01T05:44:53.618Z,43.88
2022-12-01T05:49:55.301Z,42.28
2022-12-01T05:54:56.973Z,43.63
2022-12-01T05:59:58.728Z,48.38
2022-12-01T06:05:00.421Z,43.25
2022-12-01T06:10:02.737Z,43.75
2022-12-01T06:15:06.135Z,43.92
2022-12-01T06:20:08.829Z,43.70
2022-12-01T06:25:10.817Z,41.05
2022-12-01T06:30:12.839Z,47.17
2022-12-01T06:35:14.604Z,50.83
2022-12-01T06:40:16.320Z,48.45
2022-12-01T06:45:18.058Z,45.42
2022-12-01T06:50:19.743Z,49.85
2022-12-01T06:55:21.754Z,52.85
2022-12-01T07:00:23.818Z,46.38
2022-12-01T07:05:26.065Z,50.13
2022-12-01T07:10:28.100Z,49.00
2022-12-01T07:15:29.858Z,53.75
2022-12-01T07:20:31.563Z,46.47
2022-12-01T07:25:33.319Z,47.10
2022-12-01T07:30:35.192Z,45.33
2022-12-01T07:35:36.990Z,45.28
2022-12-01T07:40:38.743Z,42.22
2022-12-01T07:45:40.438Z,49.05
2022-12-01T07:50:42.170Z,46.92
2022-12-01T07:55:49.289Z,44.88
2022-12-01T08:00:50.984Z,46.75
2022-12-01T08:06:00.487Z,41.50
2022-12-01T08:11:17.632Z,42.08
2022-12-01T08:16:23.701Z,46.03
2022-12-01T08:21:25.714Z,44.08
2022-12-01T08:26:27.682Z,49.80
2022-12-01T08:31:35.855Z,46.35
2022-12-01T08:36:37.732Z,50.58
2022-12-01T08:41:39.543Z,44.17
2022-12-01T08:46:41.249Z,41.10
2022-12-01T08:51:43.022Z,46.65
2022-12-01T08:56:45.668Z,45.17
2022-12-01T09:01:53.138Z,41.15
2022-12-01T09:06:56.295Z,40.08
2022-12-01T09:11:58.232Z,42.58
2022-12-01T09:17:00.020Z,42.75
2022-12-01T09:22:01.732Z,45.78
2022-12-01T09:27:04.461Z,44.72
2022-12-01T09:32:06.208Z,40.92
2022-12-01T09:37:08.051Z,50.15
2022-12-01T09:42:16.297Z,38.95
2022-12-01T09:47:37.599Z,41.80
2022-12-01T09:52:57.234Z,46.83
2022-12-01T09:58:00.979Z,39.03
2022-12-01T10:03:21.056Z,36.75
2022-12-01T10:08:27.234Z,37.40
2022-12-01T10:13:29.728Z,36.10
2022-12-01T10:18:54.807Z,36.95
2022-12-01T10:24:31.583Z,31.30
2022-12-01T10:29:50.079Z,30.75
2022-12-01T10:34:51.979Z,34.40
2022-12-01T10:39:55.562Z,30.65
2022-12-01T10:45:01.207Z,25.37
2022-12-01T10:50:04.052Z,28.80
2022-12-01T10:55:27.787Z,25.95
2022-12-01T11:00:58.586Z,21.23
2022-12-01T11:05:59.784Z,22.55
2022-12-01T11:16:06.182Z,25.52
2022-12-01T11:21:09.761Z,21.95
2022-12-01T11:26:16.061Z,21.43
2022-12-01T11:31:18.276Z,20.15
2022-12-01T11:36:26.050Z,20.52
2022-12-01T11:41:33.140Z,19.35
2022-12-01T11:46:46.314Z,19.52
2022-12-01T11:51:52.228Z,23.25
2022-12-01T11:57:25.281Z,18.25
2022-12-01T12:02:44.185Z,17.30
2022-12-01T12:08:05.700Z,18.67
2022-12-01T12:13:16.638Z,17.48
2022-12-01T12:18:24.505Z,18.48
2022-12-01T12:23:41.158Z,20.90
2022-12-01T12:29:19.895Z,18.05
2022-12-01T12:34:59.435Z,19.30
2022-12-01T12:40:36.086Z,19.60
2022-12-01T12:45:40.813Z,20.35
2022-12-01T12:51:11.631Z,20.85
2022-12-01T12:56:17.092Z,21.25
2022-12-01T13:01:33.690Z,21.95
2022-12-01T13:07:00.490Z,26.35
2022-12-01T13:12:09.764Z,26.42
2022-12-01T13:17:26.412Z,25.80
2022-12-01T13:22:33.044Z,25.63
2022-12-01T13:27:40.430Z,29.80
2022-12-01T13:32:43.067Z,30.83
2022-12-01T13:37:45.055Z,32.20
2022-12-01T13:43:14.551Z,35.00
2022-12-01T13:48:29.424Z,31.00
2022-12-01T13:53:38.498Z,33.05
2022-12-01T13:58:52.105Z,34.13
2022-12-01T14:04:02.626Z,37.60
2022-12-01T14:09:18.354Z,39.67
2022-12-01T14:14:26.180Z,39.08
2022-12-01T14:19:48.831Z,42.35
2022-12-01T14:24:53.154Z,44.85
2022-12-01T14:29:54.881Z,39.20
2022-12-01T14:35:00.622Z,42.95
2022-12-01T14:40:18.689Z,43.33
2022-12-01T14:45:39.555Z,43.95
2022-12-01T14:50:54.616Z,45.63
2022-12-01T14:56:00.641Z,47.67
2022-12-01T15:01:10.174Z,47.20
2022-12-01T15:06:24.364Z,46.25
2022-12-01T15:11:26.400Z,43.67
2022-12-01T15:16:32.270Z,49.42
2022-12-01T15:21:34.024Z,47.33
2022-12-01T15:26:51.013Z,43.53
2022-12-01T15:31:55.350Z,48.03
2022-12-01T15:36:58.363Z,51.53
2022-12-01T15:42:00.770Z,47.28
2022-12-01T15:47:30.702Z,43.67
2022-12-01T15:52:41.661Z,45.75
2022-12-01T15:57:46.566Z,48.05
2022-12-01T16:02:57.262Z,48.25
2022-12-01T16:08:14.080Z,43.85
2022-12-01T16:13:58.013Z,41.75
2022-12-01T16:19:02.168Z,47.40
2022-12-01T16:29:21.637Z,45.28
2022-12-01T16:34:44.828Z,49.75
2022-12-01T16:39:46.188Z,45.55
2022-12-01T16:44:49.394Z,49.05
2022-12-01T16:49:52.550Z,50.67
2022-12-01T16:54:54.239Z,44.70
2022-12-01T16:59:55.891Z,48.75
2022-12-01T17:04:57.641Z,50.92
2022-12-01T17:09:59.490Z,50.80
2022-12-01T17:15:01.171Z,53.67
2022-12-01T17:20:04.973Z,48.63
2022-12-01T17:25:09.460Z,45.40
2022-12-01T17:30:11.947Z,50.45
2022-12-01T17:35:13.677Z,48.45
2022-12-01T17:40:15.596Z,49.60
2022-12-01T17:45:17.809Z,49.47
2022-12-01T17:50:19.560Z,54.75
2022-12-01T17:55:21.239Z,50.42
2022-12-01T18:00:23.237Z,48.03
2022-12-01T18:05:25.046Z,50.65
2022-12-01T18:10:26.796Z,47.47
2022-12-01T18:15:33.257Z,49.90
2022-12-01T18:20:43.319Z,47.17
2022-12-01T18:25:44.984Z,47.78
2022-12-01T18:30:46.754Z,49.45
2022-12-01T18:35:48.463Z,49.97
2022-12-01T18:40:50.574Z,52.35
2022-12-01T18:45:52.279Z,50.03
2022-12-01T18:50:59.238Z,52.78
2022-12-01T18:56:03.513Z,51.92
2022-12-01T19:01:20.868Z,52.60
2022-12-01T19:06:23.578Z,51.05
2022-12-01T19:11:25.231Z,55.13
2022-12-01T19:16:27.627Z,56.25
2022-12-01T19:21:29.339Z,60.88
2022-12-01T19:26:31.008Z,50.95
2022-12-01T19:31:32.840Z,55.75
2022-12-01T19:36:34.600Z,56.20
2022-12-01T19:41:36.460Z,55.67
2022-12-01T19:46:38.198Z,56.75
2022-12-01T19:51:40.543Z,58.22
2022-12-01T19:56:42.648Z,57.97
2022-12-01T20:01:44.524Z,55.05
2022-12-01T20:06:46.378Z,55.60
2022-12-01T20:11:48.222Z,51.92
2022-12-01T20:16:49.964Z,56.40
2022-12-01T20:21:51.810Z,58.85
2022-12-01T20:26:56.593Z,60.67
2022-12-01T20:32:01.053Z,60.92
2022-12-01T20:37:04.425Z,61.10
2022-12-01T20:42:06.205Z,57.73
2022-12-01T20:47:07.915Z,60.20
2022-12-01T20:52:09.564Z,51.80
2022-12-01T20:57:11.268Z,61.47
2022-12-01T21:02:12.954Z,54.72
2022-12-01T21:07:14.699Z,56.38
2022-12-01T21:12:36.240Z,60.95
2022-12-01T21:17:43.760Z,57.50
2022-12-01T21:22:46.064Z,51.05
2022-12-01T21:27:47.758Z,49.85
2022-12-01T21:32:49.945Z,50.53
2022-12-01T21:37:58.055Z,51.97
2022-12-01T21:43:12.904Z,54.20
2022-12-01T21:48:22.971Z,44.33
2022-12-01T21:53:32.062Z,42.72
2022-12-01T21:58:37.261Z,40.25
2022-12-01T22:03:46.024Z,42.92
2022-12-01T22:08:51.642Z,36.05
2022-12-01T22:14:01.499Z,39.53
2022-12-01T22:19:32.068Z,39.33
2022-12-01T22:24:54.132Z,39.13
2022-12-01T22:30:11.100Z,40.45
2022-12-01T22:35:21.758Z,39.00
2022-12-01T22:40:48.005Z,38.08
2022-12-01T22:45:59.456Z,37.92
2022-12-01T22:51:20.969Z,37.67
2022-12-01T22:56:50.231Z,38.35
2022-12-01T23:01:57.360Z,38.47
2022-12-01T23:07:00.681Z,35.03
2022-12-01T23:12:11.657Z,25.50
2022-12-01T23:17:18.599Z,38.53
2022-12-01T23:22:20.347Z,38.08
2022-12-01T23:27:22.007Z,38.92
2022-12-01T23:32:23.640Z,39.47
2022-12-01T23:37:39.894Z,36.17
2022-12-01T23:42:42.092Z,33.03
2022-12-01T23:47:43.752Z,35.17
2022-12-01T23:52:46.049Z,32.40
2022-12-01T23:57:48.282Z,34.20
